Wetterdaten: Woche 28.09.15 - 04.10.15 (KW40)
Datum Zeit Temp. Aussen Temp. o. S. +5cm Feuchte Auss BlattFeu 1 Luftdruck Regen Sonnenschein Regendauer Solar Windben Empfang
28.09.2015 00:00 8,0 C 6,7 C 6,3 C 89 % 14 lf 1035,1 hPa 0,0 l/m 0,00 h 0,00 h 0 W/m 0,5 km/h (0 Bft) 95,87 %
28.09.2015 01:00 7,5 C 6,2 C 5,8 C 90 % 15 lf 1035,1 hPa 0,0 l/m 0,00 h 0,00 h 0 W/m 3,3 km/h (1 Bft) 95,58 %
28.09.2015 02:00 7,2 C 6,1 C 5,6 C 91 % 15 lf 1035,2 hPa 0,0 l/m 0,00 h 0,00 h 0 W/m 0,9 km/h (0 Bft) 95,73 %
28.09.2015 03:00 6,8 C 5,8 C 5,4 C 92 % 15 lf 1035,4 hPa 0,0 l/m 0,00 h 0,00 h 0 W/m 2,4 km/h (1 Bft) 97,43 %
28.09.2015 04:00 6,5 C 5,1 C 5,0 C 93 % 15 lf 1035,3 hPa 0,0 l/m 0,00 h 0,00 h 0 W/m 1,7 km/h (1 Bft) 96,87 %
28.09.2015 05:00 6,0 C 4,8 C 4,5 C 93 % 15 lf 1035,3 hPa 0,0 l/m 0,00 h 0,00 h 0 W/m 0,6 km/h (0 Bft) 94,95 %
28.09.2015 06:00 5,6 C 4,4 C 4,4 C 93 % 15 lf 1035,5 hPa 0,0 l/m 0,00 h 0,00 h 0 W/m 0,0 km/h (0 Bft) 95,47 %
28.09.2015 07:00 5,3 C 4,4 C 4,2 C 93 % 15 lf 1036,0 hPa 0,0 l/m 0,03 h 0,00 h 15 W/m 0,0 km/h (0 Bft) 98,14 %
28.09.2015 08:00 5,5 C 6,9 C 5,2 C 94 % 15 lf 1036,4 hPa 0,0 l/m 0,97 h 0,00 h 97 W/m 0,0 km/h (0 Bft) 94,80 %
28.09.2015 09:00 8,8 C 18,2 C 10,8 C 97 % 15 lf 1036,8 hPa 0,0 l/m 1,00 h 0,00 h 249 W/m 6,8 km/h (2 Bft) 95,92 %
28.09.2015 10:00 12,5 C 24,7 C 17,6 C 98 % 8 lf 1037,0 hPa 0,0 l/m 1,00 h 0,00 h 411 W/m 14,4 km/h (3 Bft) 95,66 %
28.09.2015 11:00 15,6 C 26,0 C 21,0 C 82 % 0 lf 1036,9 hPa 0,0 l/m 1,00 h 0,00 h 560 W/m 18,2 km/h (3 Bft) 96,30 %
28.09.2015 12:00 17,2 C 25,9 C 18,9 C 69 % 0 lf 1036,7 hPa 0,0 l/m 0,97 h 0,00 h 589 W/m 20,5 km/h (4 Bft) 96,72 %
28.09.2015 13:00 18,0 C 25,6 C 16,2 C 64 % 0 lf 1036,5 hPa 0,0 l/m 0,90 h 0,00 h 557 W/m 24,3 km/h (4 Bft) 96,44 %
28.09.2015 14:00 18,2 C 26,7 C 16,1 C 63 % 0 lf 1035,9 hPa 0,0 l/m 1,00 h 0,00 h 581 W/m 23,5 km/h (4 Bft) 96,08 %
28.09.2015 15:00 18,4 C 25,2 C 16,0 C 61 % 0 lf 1035,5 hPa 0,0 l/m 0,97 h 0,00 h 470 W/m 23,5 km/h (4 Bft) 94,81 %
28.09.2015 16:00 18,4 C 23,3 C 15,7 C 59 % 0 lf 1035,1 hPa 0,0 l/m 1,00 h 0,00 h 369 W/m 23,5 km/h (4 Bft) 96,94 %
28.09.2015 17:00 17,8 C 21,8 C 14,9 C 60 % 0 lf 1034,8 hPa 0,0 l/m 1,00 h 0,00 h 199 W/m 20,6 km/h (4 Bft) 97,58 %
28.09.2015 18:00 16,2 C 15,5 C 13,3 C 65 % 0 lf 1035,0 hPa 0,0 l/m 0,07 h 0,00 h 39 W/m 17,6 km/h (3 Bft) 93,31 %
28.09.2015 19:00 14,4 C 13,2 C 11,4 C 70 % 0 lf 1035,3 hPa 0,0 l/m 0,00 h 0,00 h 11 W/m 12,8 km/h (3 Bft) 97,65 %
28.09.2015 20:00 13,0 C 12,0 C 10,3 C 74 % 0 lf 1035,4 hPa 0,0 l/m 0,00 h 0,00 h 0 W/m 11,8 km/h (2 Bft) 97,43 %
28.09.2015 21:00 12,3 C 12,1 C 10,4 C 77 % 0 lf 1035,4 hPa 0,0 l/m 0,00 h 0,00 h 0 W/m 14,0 km/h (3 Bft) 95,65 %
28.09.2015 22:00 11,9 C 11,6 C 10,0 C 80 % 0 lf 1035,5 hPa 0,0 l/m 0,00 h 0,00 h 0 W/m 14,4 km/h (3 Bft) 95,86 %
28.09.2015 23:00 11,0 C 9,8 C 8,4 C 82 % 0 lf 1035,5 hPa 0,0 l/m 0,00 h 0,00 h 0 W/m 8,6 km/h (2 Bft) 98,13 %
29.09.2015 00:00 9,7 C 8,3 C 6,9 C 84 % 0 lf 1035,3 hPa 0,0 l/m 0,00 h 0,00 h 0 W/m 4,7 km/h (1 Bft) 95,21 %
29.09.2015 01:00 8,6 C 7,5 C 6,3 C 86 % 1 lf 1035,4 hPa 0,0 l/m 0,00 h 0,00 h 0 W/m 4,8 km/h (1 Bft) 96,87 %
29.09.2015 02:00 7,9 C 6,7 C 5,8 C 88 % 1 lf 1035,4 hPa 0,0 l/m 0,00 h 0,00 h 0 W/m 4,1 km/h (1 Bft) 94,36 %
29.09.2015 03:00 7,1 C 5,3 C 4,8 C 89 % 4 lf 1035,4 hPa 0,0 l/m 0,00 h 0,00 h 0 W/m 0,0 km/h (0 Bft) 97,01 %
29.09.2015 04:00 6,2 C 4,7 C 4,4 C 90 % 14 lf 1035,1 hPa 0,0 l/m 0,00 h 0,00 h 0 W/m 0,8 km/h (0 Bft) 96,89 %
29.09.2015 05:00 5,7 C 4,3 C 3,9 C 91 % 15 lf 1035,0 hPa 0,0 l/m 0,00 h 0,00 h 0 W/m 2,4 km/h (1 Bft) 96,44 %
29.09.2015 06:00 5,2 C 3,9 C 3,8 C 91 % 15 lf 1035,1 hPa 0,0 l/m 0,00 h 0,00 h 0 W/m 1,1 km/h (1 Bft) 96,80 %
29.09.2015 07:00 4,9 C 3,9 C 3,5 C 92 % 15 lf 1035,2 hPa 0,0 l/m 0,03 h 0,00 h 13 W/m 1,9 km/h (1 Bft) 93,44 %
29.09.2015 08:00 5,1 C 6,5 C 4,6 C 93 % 15 lf 1035,4 hPa 0,0 l/m 1,00 h 0,00 h 103 W/m 4,3 km/h (1 Bft) 97,73 %
29.09.2015 09:00 8,8 C 19,4 C 11,2 C 96 % 9 lf 1035,4 hPa 0,0 l/m 1,00 h 0,00 h 274 W/m 11,9 km/h (2 Bft) 96,30 %
29.09.2015 10:00 13,5 C 23,2 C 17,7 C 84 % 0 lf 1035,5 hPa 0,0 l/m 1,00 h 0,00 h 421 W/m 14,8 km/h (3 Bft) 95,02 %
29.09.2015 11:00 16,4 C 24,9 C 20,7 C 71 % 0 lf 1035,5 hPa 0,0 l/m 1,00 h 0,00 h 532 W/m 24,6 km/h (4 Bft) 97,65 %
29.09.2015 12:00 17,9 C 26,1 C 20,0 C 63 % 0 lf 1035,2 hPa 0,0 l/m 0,97 h 0,00 h 593 W/m 27,9 km/h (4 Bft) 96,54 %
29.09.2015 13:00 18,3 C 25,3 C 16,5 C 59 % 0 lf 1034,6 hPa 0,0 l/m 1,00 h 0,00 h 601 W/m 30,0 km/h (5 Bft) 95,72 %
29.09.2015 14:00 18,7 C 26,2 C 16,2 C 58 % 0 lf 1034,2 hPa 0,0 l/m 1,00 h 0,00 h 564 W/m 28,9 km/h (5 Bft) 97,08 %
29.09.2015 15:00 18,7 C 24,8 C 16,1 C 59 % 0 lf 1033,7 hPa 0,0 l/m 1,00 h 0,00 h 483 W/m 28,0 km/h (4 Bft) 96,23 %
29.09.2015 16:00 18,3 C 23,9 C 15,7 C 57 % 0 lf 1033,3 hPa 0,0 l/m 1,00 h 0,00 h 362 W/m 27,6 km/h (4 Bft) 96,16 %
29.09.2015 17:00 17,8 C 21,4 C 14,9 C 58 % 0 lf 1032,8 hPa 0,0 l/m 0,90 h 0,00 h 194 W/m 25,6 km/h (4 Bft) 94,58 %
29.09.2015 18:00 16,3 C 16,2 C 13,9 C 63 % 0 lf 1032,7 hPa 0,0 l/m 0,43 h 0,00 h 53 W/m 24,2 km/h (4 Bft) 97,79 %
29.09.2015 19:00 14,8 C 14,2 C 12,5 C 68 % 0 lf 1032,8 hPa 0,0 l/m 0,03 h 0,00 h 10 W/m 19,6 km/h (3 Bft) 96,51 %
29.09.2015 20:00 13,6 C 13,0 C 11,5 C 72 % 0 lf 1033,1 hPa 0,0 l/m 0,00 h 0,00 h 0 W/m 17,4 km/h (3 Bft) 95,30 %
29.09.2015 21:00 12,8 C 12,4 C 10,8 C 76 % 0 lf 1033,2 hPa 0,0 l/m 0,00 h 0,00 h 0 W/m 15,9 km/h (3 Bft) 97,72 %
29.09.2015 22:00 12,0 C 11,5 C 10,0 C 79 % 0 lf 1033,5 hPa 0,0 l/m 0,00 h 0,00 h 0 W/m 14,6 km/h (3 Bft) 97,57 %
29.09.2015 23:00 11,2 C 10,8 C 9,3 C 82 % 0 lf 1033,7 hPa 0,0 l/m 0,00 h 0,00 h 0 W/m 12,4 km/h (3 Bft) 92,95 %
30.09.2015 00:00 10,6 C 9,9 C 8,7 C 83 % 0 lf 1033,6 hPa 0,0 l/m 0,00 h 0,00 h 0 W/m 10,7 km/h (2 Bft) 98,28 %
30.09.2015 01:00 9,7 C 9,3 C 7,8 C 85 % 0 lf 1033,6 hPa 0,0 l/m 0,00 h 0,00 h 0 W/m 9,6 km/h (2 Bft) 97,01 %
30.09.2015 02:00 9,1 C 8,3 C 6,9 C 86 % 0 lf 1033,7 hPa 0,0 l/m 0,00 h 0,00 h 0 W/m 6,8 km/h (2 Bft) 94,02 %
30.09.2015 03:00 8,5 C 8,1 C 7,0 C 88 % 0 lf 1033,6 hPa 0,0 l/m 0,00 h 0,00 h 0 W/m 13,4 km/h (3 Bft) 96,44 %
30.09.2015 04:00 8,3 C 8,1 C 7,1 C 90 % 0 lf 1033,5 hPa 0,0 l/m 0,00 h 0,00 h 0 W/m 13,4 km/h (3 Bft) 97,37 %
30.09.2015 05:00 8,0 C 7,5 C 6,6 C 90 % 0 lf 1033,3 hPa 0,0 l/m 0,00 h 0,00 h 0 W/m 13,8 km/h (3 Bft) 94,95 %
30.09.2015 06:00 7,6 C 7,2 C 6,1 C 91 % 0 lf 1033,4 hPa 0,0 l/m 0,00 h 0,00 h 0 W/m 13,6 km/h (3 Bft) 97,61 %
30.09.2015 07:00 7,6 C 7,3 C 6,3 C 92 % 0 lf 1033,4 hPa 0,0 l/m 0,00 h 0,00 h 12 W/m 15,0 km/h (3 Bft) 93,79 %
30.09.2015 08:00 7,6 C 9,2 C 6,9 C 93 % 0 lf 1033,6 hPa 0,0 l/m 0,87 h 0,00 h 96 W/m 13,5 km/h (3 Bft) 97,37 %
30.09.2015 09:00 10,1 C 17,8 C 11,8 C 89 % 0 lf 1033,9 hPa 0,0 l/m 1,00 h 0,00 h 269 W/m 18,4 km/h (3 Bft) 96,65 %
30.09.2015 10:00 14,3 C 20,7 C 18,2 C 71 % 0 lf 1034,1 hPa 0,0 l/m 1,00 h 0,00 h 409 W/m 23,6 km/h (4 Bft) 95,01 %
30.09.2015 11:00 16,7 C 23,7 C 21,1 C 63 % 0 lf 1033,8 hPa 0,0 l/m 1,00 h 0,00 h 517 W/m 22,6 km/h (4 Bft) 96,09 %
30.09.2015 12:00 17,6 C 26,1 C 19,5 C 60 % 0 lf 1033,3 hPa 0,0 l/m 0,97 h 0,00 h 576 W/m 26,3 km/h (4 Bft) 98,27 %
30.09.2015 13:00 18,1 C 26,1 C 16,0 C 60 % 0 lf 1032,9 hPa 0,0 l/m 1,00 h 0,00 h 583 W/m 25,3 km/h (4 Bft) 94,09 %
30.09.2015 14:00 18,7 C 26,1 C 16,3 C 59 % 0 lf 1032,3 hPa 0,0 l/m 1,00 h 0,00 h 550 W/m 26,3 km/h (4 Bft) 95,80 %
30.09.2015 15:00 19,1 C 25,5 C 16,6 C 55 % 0 lf 1031,8 hPa 0,0 l/m 1,00 h 0,00 h 475 W/m 28,7 km/h (4 Bft) 98,58 %
30.09.2015 16:00 18,8 C 23,9 C 16,0 C 54 % 0 lf 1031,5 hPa 0,0 l/m 1,00 h 0,00 h 356 W/m 29,0 km/h (5 Bft) 94,38 %
30.09.2015 17:00 18,0 C 21,5 C 15,1 C 55 % 0 lf 1031,2 hPa 0,0 l/m 1,00 h 0,00 h 191 W/m 28,6 km/h (4 Bft) 96,30 %
30.09.2015 18:00 16,3 C 16,0 C 13,9 C 59 % 0 lf 1031,1 hPa 0,0 l/m 0,13 h 0,00 h 42 W/m 23,9 km/h (4 Bft) 96,91 %
30.09.2015 19:00 14,8 C 14,0 C 12,3 C 62 % 0 lf 1031,2 hPa 0,0 l/m 0,00 h 0,00 h 8 W/m 17,1 km/h (3 Bft) 95,23 %
30.09.2015 20:00 13,5 C 12,4 C 10,8 C 68 % 0 lf 1031,5 hPa 0,0 l/m 0,00 h 0,00 h 0 W/m 11,8 km/h (2 Bft) 96,80 %
30.09.2015 21:00 12,3 C 11,9 C 10,5 C 74 % 0 lf 1031,8 hPa 0,0 l/m 0,00 h 0,00 h 0 W/m 16,9 km/h (3 Bft) 96,37 %
30.09.2015 22:00 11,9 C 11,7 C 10,1 C 76 % 0 lf 1032,1 hPa 0,0 l/m 0,00 h 0,00 h 0 W/m 17,6 km/h (3 Bft) 95,65 %
30.09.2015 23:00 11,3 C 10,9 C 9,5 C 78 % 0 lf 1032,1 hPa 0,0 l/m 0,00 h 0,00 h 0 W/m 15,5 km/h (3 Bft) 95,01 %
01.10.2015 00:00 10,6 C 10,3 C 8,9 C 81 % 0 lf 1032,0 hPa 0,0 l/m 0,00 h 0,00 h 0 W/m 15,7 km/h (3 Bft) 93,79 %
01.10.2015 01:00 10,2 C 9,8 C 8,6 C 82 % 0 lf 1031,6 hPa 0,0 l/m 0,00 h 0,00 h 0 W/m 13,9 km/h (3 Bft) 96,16 %
01.10.2015 02:00 9,6 C 9,0 C 7,5 C 83 % 0 lf 1031,4 hPa 0,0 l/m 0,00 h 0,00 h 0 W/m 11,1 km/h (2 Bft) 95,66 %
01.10.2015 03:00 8,8 C 8,1 C 6,8 C 86 % 0 lf 1031,0 hPa 0,0 l/m 0,00 h 0,00 h 0 W/m 9,6 km/h (2 Bft) 94,95 %
01.10.2015 04:00 8,1 C 7,7 C 6,5 C 88 % 0 lf 1030,8 hPa 0,0 l/m 0,00 h 0,00 h 0 W/m 11,5 km/h (2 Bft) 96,54 %
01.10.2015 05:00 7,7 C 7,2 C 6,3 C 90 % 0 lf 1030,6 hPa 0,0 l/m 0,00 h 0,00 h 0 W/m 12,6 km/h (3 Bft) 97,65 %
01.10.2015 06:00 7,3 C 6,9 C 5,6 C 90 % 1 lf 1030,5 hPa 0,0 l/m 0,00 h 0,00 h 0 W/m 9,1 km/h (2 Bft) 95,23 %
01.10.2015 07:00 7,0 C 6,7 C 5,4 C 91 % 1 lf 1030,6 hPa 0,0 l/m 0,10 h 0,00 h 12 W/m 10,4 km/h (2 Bft) 94,24 %
01.10.2015 08:00 7,2 C 8,1 C 6,5 C 93 % 0 lf 1030,8 hPa 0,0 l/m 1,00 h 0,00 h 89 W/m 14,6 km/h (3 Bft) 98,01 %
01.10.2015 09:00 9,3 C 17,9 C 10,8 C 91 % 0 lf 1030,7 hPa 0,0 l/m 1,00 h 0,00 h 260 W/m 12,7 km/h (3 Bft) 95,51 %
01.10.2015 10:00 12,9 C 22,0 C 17,2 C 76 % 0 lf 1030,7 hPa 0,0 l/m 1,00 h 0,00 h 403 W/m 17,8 km/h (3 Bft) 95,02 %
01.10.2015 11:00 15,0 C 22,6 C 19,5 C 62 % 0 lf 1030,5 hPa 0,0 l/m 1,00 h 0,00 h 513 W/m 25,7 km/h (4 Bft) 97,58 %
01.10.2015 12:00 15,8 C 22,3 C 17,9 C 55 % 0 lf 1030,4 hPa 0,0 l/m 1,00 h 0,00 h 575 W/m 27,9 km/h (4 Bft) 95,73 %
01.10.2015 13:00 16,7 C 24,4 C 14,9 C 53 % 0 lf 1030,0 hPa 0,0 l/m 1,00 h 0,00 h 591 W/m 25,8 km/h (4 Bft) 95,73 %
01.10.2015 14:00 17,2 C 24,7 C 14,7 C 53 % 0 lf 1029,2 hPa 0,0 l/m 1,00 h 0,00 h 554 W/m 25,6 km/h (4 Bft) 96,15 %
01.10.2015 15:00 17,3 C 23,2 C 14,9 C 53 % 0 lf 1028,6 hPa 0,0 l/m 1,00 h 0,00 h 474 W/m 28,0 km/h (4 Bft) 95,87 %
01.10.2015 16:00 17,2 C 22,3 C 14,7 C 52 % 0 lf 1028,4 hPa 0,0 l/m 1,00 h 0,00 h 356 W/m 28,6 km/h (4 Bft) 96,87 %
01.10.2015 17:00 17,0 C 20,6 C 14,1 C 52 % 0 lf 1028,1 hPa 0,0 l/m 1,00 h 0,00 h 186 W/m 25,2 km/h (4 Bft) 94,52 %
01.10.2015 18:00 15,4 C 15,0 C 12,8 C 57 % 0 lf 1028,1 hPa 0,0 l/m 0,23 h 0,00 h 40 W/m 20,7 km/h (4 Bft) 96,59 %
01.10.2015 19:00 13,8 C 12,4 C 10,7 C 63 % 0 lf 1028,2 hPa 0,0 l/m 0,00 h 0,00 h 8 W/m 10,9 km/h (2 Bft) 96,65 %
01.10.2015 20:00 12,0 C 10,7 C 8,7 C 68 % 0 lf 1028,3 hPa 0,0 l/m 0,00 h 0,00 h 0 W/m 8,4 km/h (2 Bft) 95,09 %
01.10.2015 21:00 10,7 C 9,9 C 7,7 C 73 % 0 lf 1028,3 hPa 0,0 l/m 0,00 h 0,00 h 0 W/m 7,6 km/h (2 Bft) 96,43 %
01.10.2015 22:00 9,8 C 9,1 C 7,3 C 77 % 0 lf 1028,3 hPa 0,0 l/m 0,00 h 0,00 h 0 W/m 7,8 km/h (2 Bft) 95,80 %
01.10.2015 23:00 9,1 C 8,4 C 6,9 C 80 % 0 lf 1028,3 hPa 0,0 l/m 0,00 h 0,00 h 0 W/m 8,3 km/h (2 Bft) 94,59 %
02.10.2015 00:00 8,5 C 7,7 C 6,3 C 83 % 0 lf 1028,1 hPa 0,0 l/m 0,00 h 0,00 h 0 W/m 6,6 km/h (2 Bft) 98,33 %
02.10.2015 01:00 7,5 C 5,6 C 4,9 C 84 % 0 lf 1027,9 hPa 0,0 l/m 0,00 h 0,03 h 0 W/m 1,9 km/h (1 Bft) 95,44 %
02.10.2015 02:00 6,2 C 4,6 C 4,1 C 86 % 1 lf 1027,7 hPa 0,0 l/m 0,00 h 0,00 h 0 W/m 1,1 km/h (1 Bft) 94,52 %
02.10.2015 03:00 5,3 C 3,7 C 3,5 C 88 % 6 lf 1027,3 hPa 0,0 l/m 0,00 h 0,00 h 0 W/m 0,2 km/h (0 Bft) 96,87 %
02.10.2015 04:00 4,6 C 3,1 C 3,0 C 89 % 14 lf 1026,7 hPa 0,0 l/m 0,00 h 0,00 h 0 W/m 0,0 km/h (0 Bft) 97,01 %
02.10.2015 05:00 4,0 C 2,7 C 2,6 C 90 % 15 lf 1026,4 hPa 0,0 l/m 0,00 h 0,00 h 0 W/m 0,0 km/h (0 Bft) 95,72 %
02.10.2015 06:00 3,5 C 2,0 C 2,1 C 91 % 15 lf 1026,3 hPa 0,0 l/m 0,00 h 0,00 h 0 W/m 0,0 km/h (0 Bft) 96,30 %
02.10.2015 07:00 2,9 C 1,7 C 1,7 C 91 % 15 lf 1026,0 hPa 0,0 l/m 0,03 h 0,00 h 10 W/m 0,0 km/h (0 Bft) 95,09 %
02.10.2015 08:00 3,0 C 3,0 C 2,6 C 92 % 15 lf 1025,9 hPa 0,0 l/m 1,00 h 0,00 h 86 W/m 0,2 km/h (0 Bft) 95,08 %
02.10.2015 09:00 5,4 C 16,7 C 7,3 C 95 % 12 lf 1025,9 hPa 0,0 l/m 1,00 h 0,00 h 251 W/m 5,7 km/h (1 Bft) 96,52 %
02.10.2015 10:00 9,3 C 23,4 C 14,3 C 94 % 0 lf 1025,7 hPa 0,0 l/m 1,00 h 0,00 h 399 W/m 6,2 km/h (2 Bft) 97,08 %
02.10.2015 11:00 12,4 C 25,8 C 17,7 C 80 % 0 lf 1025,2 hPa 0,0 l/m 1,00 h 0,00 h 504 W/m 7,8 km/h (2 Bft) 94,30 %
02.10.2015 12:00 15,3 C 26,8 C 18,0 C 68 % 0 lf 1024,5 hPa 0,0 l/m 1,00 h 0,00 h 571 W/m 11,5 km/h (2 Bft) 96,73 %
02.10.2015 13:00 18,1 C 28,8 C 16,3 C 56 % 0 lf 1023,6 hPa 0,0 l/m 1,00 h 0,00 h 585 W/m 12,0 km/h (2 Bft) 96,22 %
02.10.2015 14:00 19,5 C 29,2 C 16,7 C 52 % 0 lf 1022,7 hPa 0,0 l/m 1,00 h 0,00 h 544 W/m 13,9 km/h (3 Bft) 95,95 %
02.10.2015 15:00 19,5 C 27,7 C 16,7 C 54 % 0 lf 1021,7 hPa 0,0 l/m 1,00 h 0,00 h 458 W/m 16,6 km/h (3 Bft) 96,16 %
02.10.2015 16:00 19,6 C 26,6 C 16,7 C 55 % 0 lf 1020,9 hPa 0,0 l/m 1,00 h 0,00 h 337 W/m 15,1 km/h (3 Bft) 94,80 %
02.10.2015 17:00 19,4 C 22,8 C 16,1 C 56 % 0 lf 1020,1 hPa 0,0 l/m 1,00 h 0,00 h 172 W/m 15,5 km/h (3 Bft) 97,23 %
02.10.2015 18:00 17,8 C 16,5 C 13,8 C 62 % 0 lf 1019,5 hPa 0,0 l/m 0,10 h 0,00 h 35 W/m 10,5 km/h (2 Bft) 96,75 %
02.10.2015 19:00 15,6 C 13,5 C 11,2 C 66 % 0 lf 1019,1 hPa 0,0 l/m 0,00 h 0,00 h 7 W/m 8,7 km/h (2 Bft) 93,31 %
02.10.2015 20:00 13,6 C 11,6 C 9,5 C 69 % 0 lf 1019,1 hPa 0,0 l/m 0,00 h 0,00 h 0 W/m 6,2 km/h (2 Bft) 98,30 %
02.10.2015 21:00 11,5 C 9,0 C 8,0 C 76 % 0 lf 1018,8 hPa 0,0 l/m 0,00 h 0,00 h 0 W/m 3,4 km/h (1 Bft) 96,81 %
02.10.2015 22:00 9,7 C 7,7 C 6,9 C 80 % 0 lf 1018,4 hPa 0,0 l/m 0,00 h 0,00 h 0 W/m 2,3 km/h (1 Bft) 94,42 %
02.10.2015 23:00 8,5 C 6,8 C 5,9 C 84 % 1 lf 1018,2 hPa 0,0 l/m 0,00 h 0,00 h 0 W/m 3,5 km/h (1 Bft) 95,99 %
03.10.2015 00:00 7,7 C 7,1 C 5,9 C 88 % 1 lf 1018,0 hPa 0,0 l/m 0,00 h 0,00 h 0 W/m 4,9 km/h (1 Bft) 96,93 %
03.10.2015 01:00 7,3 C 6,3 C 5,4 C 89 % 1 lf 1017,5 hPa 0,0 l/m 0,00 h 0,00 h 0 W/m 2,6 km/h (1 Bft) 95,13 %
03.10.2015 02:00 6,7 C 5,7 C 5,0 C 90 % 2 lf 1017,1 hPa 0,0 l/m 0,00 h 0,00 h 0 W/m 0,6 km/h (0 Bft) 97,79 %
03.10.2015 03:00 6,2 C 5,1 C 4,7 C 90 % 3 lf 1016,5 hPa 0,0 l/m 0,00 h 0,00 h 0 W/m 1,1 km/h (0 Bft) 93,79 %
03.10.2015 04:00 5,7 C 4,6 C 4,4 C 90 % 11 lf 1016,0 hPa 0,0 l/m 0,00 h 0,00 h 0 W/m 0,6 km/h (0 Bft) 95,04 %
03.10.2015 05:00 5,4 C 4,7 C 4,2 C 92 % 15 lf 1015,4 hPa 0,0 l/m 0,00 h 0,00 h 0 W/m 0,3 km/h (0 Bft) 97,79 %
03.10.2015 06:00 5,2 C 4,5 C 3,9 C 92 % 15 lf 1015,1 hPa 0,0 l/m 0,00 h 0,00 h 0 W/m 0,0 km/h (0 Bft) 96,52 %
03.10.2015 07:00 5,0 C 4,5 C 3,9 C 93 % 15 lf 1014,7 hPa 0,0 l/m 0,00 h 0,00 h 9 W/m 0,2 km/h (0 Bft) 95,66 %
03.10.2015 08:00 5,2 C 5,3 C 4,4 C 94 % 15 lf 1014,7 hPa 0,0 l/m 0,27 h 0,00 h 49 W/m 1,0 km/h (0 Bft) 94,58 %
03.10.2015 09:00 6,6 C 9,0 C 6,8 C 96 % 15 lf 1014,8 hPa 0,0 l/m 0,27 h 0,00 h 91 W/m 6,0 km/h (2 Bft) 98,51 %
03.10.2015 10:00 8,7 C 11,1 C 9,6 C 96 % 1 lf 1014,9 hPa 0,0 l/m 0,27 h 0,00 h 144 W/m 7,6 km/h (2 Bft) 94,74 %
03.10.2015 11:00 10,7 C 15,3 C 12,7 C 95 % 0 lf 1014,7 hPa 0,0 l/m 0,70 h 0,00 h 315 W/m 7,4 km/h (2 Bft) 95,87 %
03.10.2015 12:00 14,8 C 23,0 C 17,4 C 80 % 0 lf 1014,5 hPa 0,0 l/m 0,93 h 0,00 h 497 W/m 7,3 km/h (2 Bft) 95,75 %
03.10.2015 13:00 17,7 C 20,8 C 16,9 C 69 % 0 lf 1013,9 hPa 0,0 l/m 0,70 h 0,00 h 287 W/m 9,7 km/h (2 Bft) 97,11 %
03.10.2015 14:00 18,7 C 24,6 C 18,1 C 66 % 0 lf 1013,3 hPa 0,0 l/m 1,00 h 0,00 h 469 W/m 9,7 km/h (2 Bft) 96,30 %
03.10.2015 15:00 20,2 C 26,3 C 17,7 C 60 % 0 lf 1013,1 hPa 0,0 l/m 0,90 h 0,00 h 391 W/m 9,6 km/h (2 Bft) 94,01 %
03.10.2015 16:00 19,8 C 20,4 C 17,1 C 63 % 0 lf 1012,9 hPa 0,0 l/m 0,23 h 0,00 h 148 W/m 5,5 km/h (1 Bft) 98,22 %
03.10.2015 17:00 19,0 C 19,5 C 16,6 C 68 % 0 lf 1013,0 hPa 0,0 l/m 0,43 h 0,00 h 109 W/m 3,4 km/h (1 Bft) 95,37 %
03.10.2015 18:00 18,3 C 17,0 C 14,9 C 72 % 0 lf 1013,1 hPa 0,0 l/m 0,00 h 0,00 h 28 W/m 2,0 km/h (1 Bft) 94,03 %
03.10.2015 19:00 16,5 C 14,5 C 12,6 C 79 % 0 lf 1012,9 hPa 0,0 l/m 0,00 h 0,00 h 6 W/m 0,9 km/h (0 Bft) 97,08 %
03.10.2015 20:00 14,5 C 12,5 C 11,1 C 84 % 0 lf 1013,2 hPa 0,0 l/m 0,00 h 0,00 h 0 W/m 1,8 km/h (1 Bft) 97,94 %
03.10.2015 21:00 13,1 C 12,0 C 10,5 C 87 % 1 lf 1013,2 hPa 0,0 l/m 0,00 h 0,00 h 0 W/m 0,6 km/h (0 Bft) 92,10 %
03.10.2015 22:00 12,2 C 10,9 C 9,7 C 89 % 8 lf 1013,4 hPa 0,0 l/m 0,00 h 0,00 h 0 W/m 0,3 km/h (0 Bft) 98,72 %
03.10.2015 23:00 11,4 C 10,3 C 9,2 C 90 % 14 lf 1013,4 hPa 0,0 l/m 0,00 h 0,00 h 0 W/m 0,7 km/h (0 Bft) 96,59 %
04.10.2015 00:00 10,6 C 9,3 C 8,3 C 91 % 15 lf 1013,5 hPa 0,0 l/m 0,00 h 0,00 h 0 W/m 1,5 km/h (1 Bft) 95,46 %
04.10.2015 01:00 9,7 C 8,5 C 7,7 C 92 % 15 lf 1013,6 hPa 0,0 l/m 0,00 h 0,00 h 0 W/m 1,2 km/h (1 Bft) 96,00 %
04.10.2015 02:00 9,2 C 8,4 C 7,2 C 93 % 15 lf 1013,9 hPa 0,0 l/m 0,00 h 0,00 h 0 W/m 1,5 km/h (1 Bft) 96,14 %
04.10.2015 03:00 8,9 C 8,2 C 7,2 C 94 % 15 lf 1014,1 hPa 0,0 l/m 0,00 h 0,00 h 0 W/m 2,4 km/h (1 Bft) 95,00 %
04.10.2015 04:00 8,6 C 7,9 C 6,7 C 95 % 15 lf 1014,2 hPa 0,0 l/m 0,00 h 0,00 h 0 W/m 1,7 km/h (1 Bft) 97,68 %
04.10.2015 05:00 8,5 C 8,2 C 7,1 C 95 % 15 lf 1014,4 hPa 0,0 l/m 0,00 h 0,00 h 0 W/m 2,9 km/h (1 Bft) 94,60 %
04.10.2015 06:00 8,4 C 8,2 C 7,2 C 96 % 15 lf 1014,8 hPa 0,0 l/m 0,00 h 0,00 h 0 W/m 2,7 km/h (1 Bft) 95,44 %
04.10.2015 07:00 8,7 C 8,7 C 7,6 C 97 % 15 lf 1015,1 hPa 0,0 l/m 0,00 h 0,00 h 10 W/m 2,5 km/h (1 Bft) 98,28 %
04.10.2015 08:00 9,1 C 9,3 C 8,5 C 97 % 15 lf 1015,5 hPa 0,0 l/m 0,27 h 0,00 h 38 W/m 1,8 km/h (1 Bft) 95,73 %
04.10.2015 09:00 10,1 C 12,2 C 10,7 C 98 % 15 lf 1015,8 hPa 0,0 l/m 0,90 h 0,00 h 161 W/m 5,7 km/h (1 Bft) 95,37 %
04.10.2015 10:00 13,0 C 21,4 C 17,6 C 98 % 3 lf 1015,9 hPa 0,0 l/m 1,00 h 0,00 h 415 W/m 9,5 km/h (2 Bft) 96,87 %
04.10.2015 11:00 17,3 C 24,9 C 21,1 C 83 % 0 lf 1015,9 hPa 0,0 l/m 1,00 h 0,00 h 455 W/m 16,7 km/h (3 Bft) 95,87 %
04.10.2015 12:00 18,8 C 25,7 C 20,6 C 75 % 0 lf 1015,7 hPa 0,0 l/m 0,93 h 0,00 h 509 W/m 12,3 km/h (3 Bft) 96,43 %
04.10.2015 13:00 19,8 C 24,1 C 18,8 C 73 % 0 lf 1015,5 hPa 0,0 l/m 0,83 h 0,00 h 393 W/m 11,8 km/h (2 Bft) 97,22 %
04.10.2015 14:00 19,0 C 19,3 C 17,6 C 75 % 0 lf 1015,5 hPa 0,0 l/m 0,07 h 0,00 h 138 W/m 10,2 km/h (2 Bft) 95,01 %
04.10.2015 15:00 18,2 C 18,7 C 17,0 C 78 % 0 lf 1015,2 hPa 0,0 l/m 0,00 h 0,03 h 96 W/m 8,7 km/h (2 Bft) 95,52 %
04.10.2015 16:00 18,0 C 20,3 C 15,5 C 80 % 4 lf 1014,8 hPa 0,0 l/m 0,50 h 0,13 h 166 W/m 7,0 km/h (2 Bft) 97,79 %
04.10.2015 17:00 18,7 C 22,8 C 16,6 C 76 % 0 lf 1014,5 hPa 0,0 l/m 0,97 h 0,00 h 181 W/m 7,9 km/h (2 Bft) 94,45 %
04.10.2015 18:00 18,3 C 17,0 C 14,7 C 73 % 0 lf 1014,4 hPa 0,0 l/m 0,10 h 0,00 h 29 W/m 5,5 km/h (1 Bft) 96,35 %
04.10.2015 19:00 16,2 C 14,3 C 12,2 C 78 % 0 lf 1014,4 hPa 0,0 l/m 0,00 h 0,00 h 5 W/m 4,2 km/h (1 Bft) 95,87 %
04.10.2015 20:00 14,4 C 12,8 C 11,2 C 83 % 0 lf 1014,6 hPa 0,0 l/m 0,00 h 0,00 h 0 W/m 3,4 km/h (1 Bft) 97,16 %
04.10.2015 21:00 13,1 C 12,1 C 10,3 C 87 % 1 lf 1014,8 hPa 0,0 l/m 0,00 h 0,00 h 0 W/m 5,6 km/h (1 Bft) 96,51 %
04.10.2015 22:00 12,0 C 11,2 C 9,5 C 90 % 2 lf 1014,9 hPa 0,0 l/m 0,00 h 0,00 h 0 W/m 5,2 km/h (1 Bft) 94,87 %
04.10.2015 23:00 11,4 C 10,7 C 9,0 C 92 % 3 lf 1014,6 hPa 0,0 l/m 0,00 h 0,00 h 0 W/m 5,0 km/h (1 Bft) 95,59 %
Min-Datum _ 02.10.15 02.10.15 02.10.15 01.10.15 28.09.15 03.10.15 - - - - 28.09.15 01.10.15
_ Min-Zeit 07:48 06:38 06:46 16:42 10:34 16:30 - - - - 00:00 00:02
Minimum _ 2,7 C 1,7 C 1,7 C 50 % 0 lf 1012,7 hPa - - - - 0,0 km/h (0 Bft) 6,67 %
Max-Datum _ 03.10.15 02.10.15 04.10.15 04.10.15 28.09.15 28.09.15 28.09.15 28.09.15 02.10.15 03.10.15 30.09.15 28.09.15
_ Max-Zeit 15:42 14:16 10:50 10:30 00:24 10:32 00:00 07:58 01:44 14:28 17:24 00:06
Maximum _ 20,6 C 31,1 C 22,8 C 99 % 15 lf 1037,2 hPa 0,0 l/m 0,03 h 0,03 h 768 W/m 43,9 km/h
O-NO (6 Bft)
100,00 %
Durchschnitt _ 12,0 C 14,0 C 10,8 C 79 % 4 lf 1026,5 hPa #0,0 l/m #62:58 h #12 min. 281 W/m 10,8 km/h (2 Bft) 96,08 %
© 2015 W. Hausmann